createdAt,value
2022-09-09T00:01:42.846Z,1.10
2022-09-09T00:04:29.898Z,1.12
2022-09-09T00:07:05.956Z,1.40
2022-09-09T00:09:48.156Z,0.90
2022-09-09T00:12:36.686Z,1.00
2022-09-09T00:15:15.526Z,1.15
2022-09-09T00:18:13.652Z,0.88
2022-09-09T00:20:59.431Z,0.70
2022-09-09T00:23:30.165Z,0.98
2022-09-09T00:26:21.714Z,1.45
2022-09-09T00:29:21.501Z,1.30
2022-09-09T00:31:54.038Z,1.05
2022-09-09T00:34:29.541Z,0.90
2022-09-09T00:36:57.624Z,1.00
2022-09-09T00:39:42.475Z,0.93
2022-09-09T00:42:35.170Z,0.85
2022-09-09T00:45:36.810Z,0.80
2022-09-09T00:48:09.269Z,1.30
2022-09-09T00:51:00.492Z,1.08
2022-09-09T00:53:49.931Z,1.00
2022-09-09T00:56:23.817Z,1.10
2022-09-09T00:59:03.008Z,1.00
2022-09-09T01:01:30.995Z,1.08
2022-09-09T01:04:01.679Z,1.00
2022-09-09T01:06:50.632Z,1.15
2022-09-09T01:09:47.803Z,1.00
2022-09-09T01:12:19.641Z,2.17
2022-09-09T01:14:50.386Z,1.20
2022-09-09T01:17:20.843Z,0.90
2022-09-09T01:20:13.491Z,1.25
2022-09-09T01:22:49.616Z,0.90
2022-09-09T01:25:34.725Z,1.10
2022-09-09T01:28:04.425Z,0.90
2022-09-09T01:30:40.707Z,1.00
2022-09-09T01:33:12.197Z,1.10
2022-09-09T01:36:00.548Z,0.98
2022-09-09T01:38:28.606Z,0.75
2022-09-09T01:40:56.431Z,1.00
2022-09-09T01:43:28.936Z,1.17
2022-09-09T01:45:58.123Z,1.02
2022-09-09T01:48:30.619Z,0.88
2022-09-09T01:50:58.545Z,0.98
2022-09-09T01:53:26.344Z,0.90
2022-09-09T01:56:39.082Z,1.20
2022-09-09T01:59:11.876Z,0.90
2022-09-09T02:01:57.989Z,0.98
2022-09-09T02:04:38.447Z,1.17
2022-09-09T02:07:08.384Z,1.17
2022-09-09T02:09:36.172Z,1.12
2022-09-09T02:12:10.446Z,1.05
2022-09-09T02:14:40.380Z,1.10
2022-09-09T02:17:12.693Z,1.10
2022-09-09T02:19:55.718Z,0.90
2022-09-09T02:22:24.608Z,0.95
2022-09-09T02:24:57.137Z,0.95
2022-09-09T02:27:25.030Z,1.10
2022-09-09T02:29:52.784Z,0.88
2022-09-09T02:32:22.641Z,1.30
2022-09-09T02:35:03.677Z,1.15
2022-09-09T02:37:37.498Z,1.27
2022-09-09T02:40:06.984Z,0.90
2022-09-09T02:42:34.900Z,0.98
2022-09-09T02:45:07.628Z,1.37
2022-09-09T02:47:50.815Z,1.40
2022-09-09T02:50:30.519Z,1.10
2022-09-09T02:53:17.255Z,1.15
2022-09-09T02:56:10.722Z,1.23
2022-09-09T02:58:38.810Z,1.25
2022-09-09T03:01:06.783Z,1.50
2022-09-09T03:03:34.676Z,1.58
2022-09-09T03:06:02.562Z,1.62
2022-09-09T03:08:30.428Z,1.58
2022-09-09T03:11:00.392Z,1.75
2022-09-09T03:13:28.276Z,2.20
2022-09-09T03:15:56.109Z,1.80
2022-09-09T03:18:24.043Z,1.92
2022-09-09T03:20:51.770Z,1.98
2022-09-09T03:23:24.246Z,1.75
2022-09-09T03:25:52.265Z,1.20
2022-09-09T03:28:20.682Z,1.70
2022-09-09T03:30:48.472Z,1.85
2022-09-09T03:33:17.266Z,2.10
2022-09-09T03:35:50.871Z,1.92
2022-09-09T03:38:19.244Z,2.00
2022-09-09T03:40:59.868Z,1.65
2022-09-09T03:43:27.896Z,1.62
2022-09-09T03:45:58.993Z,1.45
2022-09-09T03:48:31.485Z,1.27
2022-09-09T03:51:02.861Z,1.12
2022-09-09T03:53:31.063Z,1.15
2022-09-09T03:56:03.470Z,1.42
2022-09-09T03:58:31.434Z,0.80
2022-09-09T04:01:00.781Z,0.62
2022-09-09T04:03:28.789Z,0.62
2022-09-09T04:05:57.441Z,0.85
2022-09-09T04:08:27.526Z,0.90
2022-09-09T04:10:55.835Z,0.60
2022-09-09T04:13:23.846Z,0.80
2022-09-09T04:15:58.002Z,0.80
2022-09-09T04:18:25.995Z,0.70
2022-09-09T04:20:54.504Z,0.60
2022-09-09T04:23:22.762Z,0.75
2022-09-09T04:25:51.730Z,0.70
2022-09-09T04:28:20.372Z,0.80
2022-09-09T04:30:52.904Z,0.80
2022-09-09T04:33:20.811Z,0.70
2022-09-09T04:35:50.017Z,0.65
2022-09-09T04:38:18.716Z,0.70
2022-09-09T04:40:49.115Z,0.70
2022-09-09T04:43:21.603Z,0.80
2022-09-09T04:45:50.626Z,0.60
2022-09-09T04:48:18.508Z,1.10
2022-09-09T04:50:46.371Z,0.90
2022-09-09T04:53:14.277Z,0.60
2022-09-09T04:55:42.128Z,0.80
2022-09-09T04:58:10.331Z,0.90
2022-09-09T05:00:38.367Z,0.88
2022-09-09T05:03:10.967Z,0.80
2022-09-09T05:05:38.905Z,0.62
2022-09-09T05:08:08.017Z,0.50
2022-09-09T05:10:40.469Z,0.70
2022-09-09T05:13:08.724Z,0.90
2022-09-09T05:15:37.700Z,1.42
2022-09-09T05:18:06.989Z,0.80
2022-09-09T05:20:43.027Z,0.73
2022-09-09T05:23:13.489Z,0.70
2022-09-09T05:26:06.304Z,0.98
2022-09-09T05:28:38.394Z,0.88
2022-09-09T05:31:07.816Z,0.90
2022-09-09T05:33:36.755Z,0.73
2022-09-09T05:36:22.645Z,0.80
2022-09-09T05:38:51.360Z,0.85
2022-09-09T05:41:19.490Z,1.00
2022-09-09T05:43:52.075Z,0.68
2022-09-09T05:46:21.926Z,0.90
2022-09-09T05:48:52.751Z,0.70
2022-09-09T05:51:26.541Z,0.70
2022-09-09T05:53:57.557Z,0.70
2022-09-09T05:56:34.618Z,0.80
2022-09-09T05:59:08.528Z,0.70
2022-09-09T06:01:46.382Z,1.05
2022-09-09T06:04:26.692Z,0.80
2022-09-09T06:06:57.447Z,0.73
2022-09-09T06:09:25.387Z,0.90
2022-09-09T06:12:07.261Z,0.75
2022-09-09T06:14:44.399Z,0.80
2022-09-09T06:17:15.691Z,0.73
2022-09-09T06:19:55.026Z,0.70
2022-09-09T06:22:30.699Z,0.73
2022-09-09T06:25:12.135Z,0.80
2022-09-09T06:27:44.772Z,0.90
2022-09-09T06:30:23.291Z,0.70
2022-09-09T06:33:03.369Z,0.62
2022-09-09T06:35:31.593Z,0.80
2022-09-09T06:38:00.940Z,0.68
2022-09-09T06:40:34.796Z,0.80
2022-09-09T06:43:03.312Z,0.80
2022-09-09T06:45:31.582Z,0.77
2022-09-09T06:48:26.234Z,0.60
2022-09-09T06:51:22.735Z,1.12
2022-09-09T06:54:03.581Z,0.90
2022-09-09T06:56:39.493Z,0.90
2022-09-09T06:59:13.573Z,0.90
2022-09-09T07:01:52.434Z,0.80
2022-09-09T07:04:24.200Z,0.80
2022-09-09T07:06:54.926Z,0.80
2022-09-09T07:09:27.766Z,0.65
2022-09-09T07:12:01.940Z,0.98
2022-09-09T07:14:36.399Z,0.80
2022-09-09T07:17:29.227Z,0.57
2022-09-09T07:19:57.856Z,1.08
2022-09-09T07:22:26.954Z,0.82
2022-09-09T07:25:04.533Z,0.95
2022-09-09T07:27:35.262Z,0.85
2022-09-09T07:30:08.733Z,0.75
2022-09-09T07:32:54.354Z,0.90
2022-09-09T07:35:35.772Z,0.90
2022-09-09T07:38:28.988Z,0.82
2022-09-09T07:41:18.545Z,0.70
2022-09-09T07:43:47.532Z,1.00
2022-09-09T07:49:11.417Z,0.70
2022-09-09T07:51:45.183Z,0.80
2022-09-09T07:54:16.513Z,0.70
2022-09-09T07:56:51.669Z,0.75
2022-09-09T07:59:27.037Z,1.08
2022-09-09T08:01:57.007Z,0.70
2022-09-09T08:04:31.885Z,0.88
2022-09-09T08:07:07.893Z,0.62
2022-09-09T08:09:39.398Z,0.90
2022-09-09T08:12:08.853Z,0.60
2022-09-09T08:14:43.319Z,0.60
2022-09-09T08:17:17.396Z,0.70
2022-09-09T08:19:50.057Z,0.45
2022-09-09T08:22:30.507Z,0.52
2022-09-09T08:25:00.562Z,0.57
2022-09-09T08:27:35.689Z,0.90
2022-09-09T08:30:08.979Z,0.70
2022-09-09T08:32:49.612Z,0.60
2022-09-09T08:35:26.542Z,0.70
2022-09-09T08:38:07.660Z,0.50
2022-09-09T08:40:52.159Z,0.73
2022-09-09T08:43:32.324Z,0.70
2022-09-09T08:46:26.553Z,0.50
2022-09-09T08:49:28.275Z,0.80
2022-09-09T08:51:59.830Z,0.70
2022-09-09T08:54:51.219Z,0.50
2022-09-09T08:57:45.921Z,0.85
2022-09-09T09:00:15.229Z,0.60
2022-09-09T09:03:23.788Z,0.77
2022-09-09T09:06:26.379Z,0.68
2022-09-09T09:09:22.775Z,0.70
2022-09-09T09:12:03.265Z,0.50
2022-09-09T09:14:32.948Z,0.65
2022-09-09T09:17:32.127Z,0.50
2022-09-09T09:20:04.724Z,0.60
2022-09-09T09:22:45.323Z,0.70
2022-09-09T09:25:26.266Z,0.57
2022-09-09T09:28:11.682Z,0.70
2022-09-09T09:31:08.257Z,1.12
2022-09-09T09:34:19.665Z,0.73
2022-09-09T09:36:56.316Z,0.68
2022-09-09T09:43:08.513Z,0.70
2022-09-09T09:45:46.766Z,0.70
2022-09-09T09:48:30.678Z,0.50
2022-09-09T09:51:12.950Z,0.75
2022-09-09T09:53:43.834Z,0.80
2022-09-09T09:56:13.130Z,0.62
2022-09-09T09:59:17.997Z,0.60
2022-09-09T10:02:34.838Z,0.95
2022-09-09T10:05:08.023Z,0.70
2022-09-09T10:07:51.313Z,1.05
2022-09-09T10:10:26.032Z,0.50
2022-09-09T10:12:58.088Z,0.68
2022-09-09T10:15:35.725Z,0.50
2022-09-09T10:18:25.638Z,0.75
2022-09-09T10:21:21.977Z,1.10
2022-09-09T10:24:15.124Z,0.88
2022-09-09T10:27:14.983Z,0.70
2022-09-09T10:29:57.973Z,0.60
2022-09-09T10:32:48.564Z,0.68
2022-09-09T10:35:58.445Z,0.82
2022-09-09T10:38:56.429Z,0.70
2022-09-09T10:41:37.138Z,1.00
2022-09-09T10:44:31.322Z,0.90
2022-09-09T10:47:19.460Z,0.70
2022-09-09T10:50:17.579Z,0.80
2022-09-09T10:53:00.518Z,0.90
2022-09-09T10:55:59.667Z,0.55
2022-09-09T10:58:35.938Z,0.60
2022-09-09T11:01:12.492Z,1.40
2022-09-09T11:03:45.287Z,0.70
2022-09-09T11:06:19.874Z,1.10
2022-09-09T11:08:51.695Z,0.80
2022-09-09T11:11:26.368Z,0.93
2022-09-09T11:13:54.587Z,0.90
2022-09-09T11:16:46.029Z,0.80
2022-09-09T11:19:23.634Z,0.60
2022-09-09T11:21:56.018Z,0.70
2022-09-09T11:24:27.232Z,0.70
2022-09-09T11:27:05.346Z,0.73
2022-09-09T11:29:56.037Z,0.80
2022-09-09T11:32:57.667Z,0.55
2022-09-09T11:35:50.331Z,0.70
2022-09-09T11:38:20.337Z,0.80
2022-09-09T11:40:52.852Z,0.47
2022-09-09T11:43:26.046Z,0.65
2022-09-09T11:46:00.346Z,0.60
2022-09-09T11:48:47.918Z,0.50
2022-09-09T11:51:28.868Z,0.77
2022-09-09T11:54:03.361Z,0.70
2022-09-09T11:56:48.485Z,0.60
2022-09-09T11:59:24.137Z,0.55
2022-09-09T12:02:17.035Z,0.50
2022-09-09T12:04:53.269Z,1.17
2022-09-09T12:07:29.085Z,0.95
2022-09-09T12:10:09.250Z,0.68
2022-09-09T12:12:44.169Z,0.60
2022-09-09T12:15:11.997Z,0.70
2022-09-09T12:17:54.730Z,0.60
2022-09-09T12:20:40.300Z,0.62
2022-09-09T12:23:16.414Z,0.70
2022-09-09T12:26:02.140Z,0.88
2022-09-09T12:28:46.837Z,0.90
2022-09-09T12:31:37.113Z,0.80
2022-09-09T12:34:14.050Z,0.60
2022-09-09T12:36:42.317Z,0.60
2022-09-09T12:39:19.938Z,0.85
2022-09-09T12:41:58.956Z,0.70
2022-09-09T12:44:27.759Z,0.70
2022-09-09T12:46:55.684Z,0.73
2022-09-09T12:49:36.650Z,0.93
2022-09-09T12:52:07.713Z,0.68
2022-09-09T12:54:36.956Z,0.60
2022-09-09T12:57:11.335Z,0.70
2022-09-09T12:59:44.421Z,0.70
2022-09-09T13:02:23.588Z,0.50
2022-09-09T13:04:56.074Z,0.70
2022-09-09T13:07:29.104Z,0.70
2022-09-09T13:10:01.551Z,0.73
2022-09-09T13:12:29.505Z,0.80
2022-09-09T13:15:02.321Z,0.60
2022-09-09T13:17:33.190Z,0.60
2022-09-09T13:20:01.084Z,0.70
2022-09-09T13:22:33.113Z,1.05
2022-09-09T13:25:04.541Z,0.70
2022-09-09T13:27:40.950Z,0.80
2022-09-09T13:30:55.173Z,0.73
2022-09-09T13:33:24.688Z,0.45
2022-09-09T13:35:59.777Z,0.95
2022-09-09T13:38:30.367Z,0.70
2022-09-09T13:41:12.433Z,1.05
2022-09-09T13:43:46.865Z,0.60
2022-09-09T13:46:46.410Z,1.00
2022-09-09T13:49:14.203Z,0.60
2022-09-09T13:51:48.874Z,0.70
2022-09-09T13:54:18.155Z,0.70
2022-09-09T13:56:52.228Z,0.88
2022-09-09T13:59:24.026Z,0.60
2022-09-09T14:01:56.485Z,0.62
2022-09-09T14:04:36.526Z,0.68
2022-09-09T14:07:09.985Z,0.65
2022-09-09T14:09:42.492Z,0.80
2022-09-09T14:12:27.682Z,0.70
2022-09-09T14:15:01.942Z,0.82
2022-09-09T14:17:32.103Z,0.73
2022-09-09T14:20:00.179Z,0.60
2022-09-09T14:22:28.131Z,0.70
2022-09-09T14:25:00.579Z,0.80
2022-09-09T14:27:33.228Z,1.02
2022-09-09T14:30:02.799Z,0.90
2022-09-09T14:32:35.388Z,0.68
2022-09-09T14:35:09.143Z,0.70
2022-09-09T14:37:37.984Z,0.85
2022-09-09T14:40:06.369Z,0.73
2022-09-09T14:42:39.235Z,0.77
2022-09-09T14:45:07.667Z,0.90
2022-09-09T14:47:35.637Z,0.70
2022-09-09T14:50:08.126Z,0.62
2022-09-09T14:52:36.101Z,0.90
2022-09-09T14:55:03.867Z,0.80
2022-09-09T14:57:33.144Z,0.75
2022-09-09T15:00:01.228Z,0.98
2022-09-09T15:02:32.118Z,0.70
2022-09-09T15:05:04.619Z,0.55
2022-09-09T15:07:33.954Z,0.70
2022-09-09T15:10:01.977Z,0.50
2022-09-09T15:12:30.489Z,0.80
2022-09-09T15:15:00.948Z,0.55
2022-09-09T15:17:29.145Z,0.80
2022-09-09T15:19:57.085Z,1.02
2022-09-09T15:22:26.257Z,1.00
2022-09-09T15:24:58.840Z,1.48
2022-09-09T15:27:26.660Z,1.30
2022-09-09T15:29:54.516Z,0.70
2022-09-09T15:32:28.453Z,0.60
2022-09-09T15:34:58.769Z,0.55
2022-09-09T15:37:26.770Z,0.55
2022-09-09T15:39:54.631Z,0.60
2022-09-09T15:42:27.117Z,0.77
2022-09-09T15:45:01.328Z,0.40
2022-09-09T15:47:33.887Z,0.60
2022-09-09T15:50:06.262Z,0.70
2022-09-09T15:52:34.064Z,0.95
2022-09-09T15:55:02.754Z,0.50
2022-09-09T15:57:42.795Z,0.62
2022-09-09T16:00:11.358Z,0.90
2022-09-09T16:02:39.447Z,0.70
2022-09-09T16:05:07.911Z,0.60
2022-09-09T16:07:37.099Z,0.43
2022-09-09T16:10:10.248Z,0.35
2022-09-09T16:12:38.232Z,0.60
2022-09-09T16:15:10.176Z,0.57
2022-09-09T16:17:39.945Z,0.37
2022-09-09T16:20:10.908Z,0.45
2022-09-09T16:22:44.270Z,0.30
2022-09-09T16:25:17.078Z,0.55
2022-09-09T16:27:49.602Z,1.30
2022-09-09T16:30:17.495Z,0.60
2022-09-09T16:32:45.558Z,0.57
2022-09-09T16:35:13.766Z,0.30
2022-09-09T16:37:46.322Z,0.55
2022-09-09T16:40:14.148Z,0.47
2022-09-09T16:42:41.953Z,0.50
2022-09-09T16:45:10.207Z,0.50
2022-09-09T16:47:40.012Z,2.05
2022-09-09T16:50:12.468Z,0.60
2022-09-09T16:52:40.493Z,0.60
2022-09-09T16:55:13.346Z,0.70
2022-09-09T16:57:41.476Z,0.52
2022-09-09T17:00:10.055Z,0.35
2022-09-09T17:02:37.923Z,0.60
2022-09-09T17:05:11.355Z,0.62
2022-09-09T17:07:39.190Z,0.70
2022-09-09T17:10:08.499Z,0.80
2022-09-09T17:12:42.274Z,0.68
2022-09-09T17:15:15.376Z,0.60
2022-09-09T17:17:47.202Z,0.52
2022-09-09T17:20:17.053Z,0.98
2022-09-09T17:22:45.144Z,0.80
2022-09-09T17:25:14.088Z,0.88
2022-09-09T17:27:42.430Z,0.80
2022-09-09T17:30:11.432Z,0.60
2022-09-09T17:32:43.414Z,0.70
2022-09-09T17:35:11.534Z,0.80
2022-09-09T17:37:39.322Z,0.80
2022-09-09T17:40:08.437Z,1.12
2022-09-09T17:42:37.319Z,0.90
2022-09-09T17:45:08.917Z,0.60
2022-09-09T17:47:41.464Z,0.62
2022-09-09T17:50:10.193Z,0.85
2022-09-09T17:52:42.595Z,0.88
2022-09-09T17:55:13.980Z,0.52
2022-09-09T17:57:41.900Z,0.70
2022-09-09T18:00:14.692Z,0.60
2022-09-09T18:02:43.621Z,0.88
2022-09-09T18:05:14.230Z,0.50
2022-09-09T18:07:42.909Z,1.20
2022-09-09T18:10:16.495Z,1.00
2022-09-09T18:12:45.392Z,0.80
2022-09-09T18:15:24.135Z,0.88
2022-09-09T18:17:56.370Z,0.60
2022-09-09T18:20:25.760Z,0.77
2022-09-09T18:22:58.489Z,0.40
2022-09-09T18:25:26.337Z,0.52
2022-09-09T18:28:08.726Z,0.32
2022-09-09T18:30:41.258Z,0.30
2022-09-09T18:33:24.003Z,0.60
2022-09-09T18:35:58.096Z,0.73
2022-09-09T18:38:30.882Z,0.43
2022-09-09T18:41:23.946Z,0.60
2022-09-09T18:43:59.212Z,0.60
2022-09-09T18:46:28.289Z,0.60
2022-09-09T18:49:00.755Z,0.85
2022-09-09T18:51:36.386Z,0.80
2022-09-09T18:54:11.168Z,0.70
2022-09-09T18:56:42.072Z,0.62
2022-09-09T18:59:14.607Z,0.70
2022-09-09T19:01:48.748Z,0.73
2022-09-09T19:04:22.898Z,0.62
2022-09-09T19:06:52.842Z,0.60
2022-09-09T19:09:20.758Z,0.50
2022-09-09T19:11:48.800Z,0.60
2022-09-09T19:14:18.841Z,0.65
2022-09-09T19:16:53.720Z,0.70
2022-09-09T19:19:36.659Z,0.50
2022-09-09T19:22:12.882Z,0.60
2022-09-09T19:24:41.775Z,0.50
2022-09-09T19:27:14.294Z,0.60
2022-09-09T19:29:46.823Z,0.30
2022-09-09T19:35:08.012Z,0.60
2022-09-09T19:37:40.858Z,0.52
2022-09-09T19:40:09.400Z,0.70
2022-09-09T19:42:41.861Z,0.55
2022-09-09T19:45:14.782Z,0.47
2022-09-09T19:47:53.171Z,0.50
2022-09-09T19:50:24.416Z,0.57
2022-09-09T19:52:53.483Z,0.50
2022-09-09T19:55:22.010Z,0.55
2022-09-09T19:57:59.277Z,0.50
2022-09-09T20:00:27.858Z,0.30
2022-09-09T20:03:17.700Z,0.40
2022-09-09T20:05:44.347Z,0.30
2022-09-09T20:08:16.872Z,0.55
2022-09-09T20:11:23.173Z,0.40
2022-09-09T20:13:51.066Z,0.55
2022-09-09T20:16:27.124Z,0.80
2022-09-09T20:18:57.949Z,1.20
2022-09-09T20:21:33.093Z,0.52
2022-09-09T20:24:04.877Z,0.90
2022-09-09T20:26:34.705Z,0.80
2022-09-09T20:29:03.271Z,0.60
2022-09-09T20:31:31.367Z,0.52
2022-09-09T20:34:03.753Z,0.65
2022-09-09T20:36:33.541Z,1.35
2022-09-09T20:39:14.967Z,0.80
2022-09-09T20:41:45.574Z,0.57
2022-09-09T20:44:18.035Z,0.70
2022-09-09T20:46:57.570Z,0.70
2022-09-09T20:49:26.855Z,0.50
2022-09-09T20:51:54.726Z,0.60
2022-09-09T20:54:26.986Z,0.80
2022-09-09T20:56:56.254Z,0.50
2022-09-09T20:59:28.579Z,0.80
2022-09-09T21:01:58.015Z,0.50
2022-09-09T21:04:26.340Z,0.60
2022-09-09T21:06:54.255Z,0.40
2022-09-09T21:09:24.290Z,0.40
2022-09-09T21:11:56.989Z,0.40
2022-09-09T21:14:25.014Z,0.47
2022-09-09T21:16:53.985Z,0.70
2022-09-09T21:19:21.898Z,0.50
2022-09-09T21:21:49.650Z,0.60
2022-09-09T21:24:17.762Z,0.50
2022-09-09T21:26:45.622Z,0.52
2022-09-09T21:29:14.486Z,0.60
2022-09-09T21:31:42.641Z,0.50
2022-09-09T21:34:10.957Z,0.50
2022-09-09T21:36:38.825Z,0.50
2022-09-09T21:39:06.574Z,0.50
2022-09-09T21:41:34.358Z,0.60
2022-09-09T21:44:02.239Z,0.60
2022-09-09T21:46:30.472Z,0.50
2022-09-09T21:48:59.330Z,0.45
2022-09-09T21:51:27.299Z,0.60
2022-09-09T21:53:58.259Z,0.40
2022-09-09T21:56:26.161Z,0.47
2022-09-09T21:58:58.120Z,0.50
2022-09-09T22:01:27.286Z,0.40
2022-09-09T22:03:55.033Z,0.40
2022-09-09T22:06:23.014Z,0.65
2022-09-09T22:08:51.100Z,0.60
2022-09-09T22:11:20.901Z,0.98
2022-09-09T22:13:49.590Z,0.60
2022-09-09T22:16:20.195Z,0.55
2022-09-09T22:18:55.051Z,0.65
2022-09-09T22:21:26.446Z,0.70
2022-09-09T22:23:58.318Z,0.73
2022-09-09T22:26:27.345Z,0.73
2022-09-09T22:28:59.746Z,0.90
2022-09-09T22:31:28.003Z,0.75
2022-09-09T22:33:55.993Z,1.00
2022-09-09T22:36:23.995Z,0.60
2022-09-09T22:38:51.953Z,0.68
2022-09-09T22:41:20.149Z,0.60
2022-09-09T22:43:48.181Z,0.70
2022-09-09T22:46:20.764Z,0.43
2022-09-09T22:48:49.288Z,0.45
2022-09-09T22:51:17.341Z,0.52
2022-09-09T22:53:46.183Z,0.45
2022-09-09T22:56:18.528Z,0.30
2022-09-09T22:58:47.278Z,0.50
2022-09-09T23:01:17.617Z,0.62
2022-09-09T23:03:48.738Z,0.37
2022-09-09T23:06:21.194Z,0.70
2022-09-09T23:08:53.286Z,0.47
2022-09-09T23:11:21.203Z,0.55
2022-09-09T23:13:54.188Z,0.47
2022-09-09T23:16:24.019Z,0.40
2022-09-09T23:18:56.529Z,0.50
2022-09-09T23:21:27.401Z,0.40
2022-09-09T23:23:55.470Z,0.60
2022-09-09T23:26:23.966Z,0.50
2022-09-09T23:28:53.133Z,0.60
2022-09-09T23:31:23.873Z,0.60
2022-09-09T23:33:51.859Z,0.80
2022-09-09T23:36:20.813Z,0.40
2022-09-09T23:38:53.204Z,0.40
2022-09-09T23:41:22.203Z,0.50
2022-09-09T23:43:54.670Z,0.55
2022-09-09T23:46:24.317Z,0.62
2022-09-09T23:48:52.962Z,0.40
2022-09-09T23:51:23.891Z,0.50
2022-09-09T23:53:54.063Z,0.50
2022-09-09T23:56:22.421Z,0.68
2022-09-09T23:58:50.582Z,0.30
